createdAt,value
2017-08-18T00:00:54.363Z,0
2017-08-18T00:01:54.360Z,0
2017-08-18T00:02:54.352Z,0
2017-08-18T00:03:53.734Z,0
2017-08-18T00:04:54.334Z,0
2017-08-18T00:05:54.325Z,0
2017-08-18T00:06:54.021Z,0
2017-08-18T00:07:54.307Z,0
2017-08-18T00:08:54.004Z,0
2017-08-18T00:09:54.294Z,0
2017-08-18T00:10:53.985Z,0
2017-08-18T00:11:53.986Z,0
2017-08-18T00:12:53.976Z,0
2017-08-18T00:13:54.269Z,0
2017-08-18T00:14:53.966Z,0
2017-08-18T00:15:53.657Z,0
2017-08-18T00:16:53.654Z,0
2017-08-18T00:17:53.938Z,0
2017-08-18T00:18:54.228Z,0
2017-08-18T00:19:54.227Z,0
2017-08-18T00:20:54.215Z,0
2017-08-18T00:21:54.216Z,0
2017-08-18T00:22:53.888Z,0
2017-08-18T00:23:53.892Z,0
2017-08-18T00:24:54.195Z,0
2017-08-18T00:25:53.868Z,0
2017-08-18T00:26:54.159Z,0
2017-08-18T00:27:53.853Z,0
2017-08-18T00:28:53.850Z,0
2017-08-18T00:29:53.834Z,0
2017-08-18T00:30:53.843Z,0
2017-08-18T00:31:53.839Z,0
2017-08-18T00:32:53.805Z,0
2017-08-18T00:33:54.120Z,0
2017-08-18T00:34:53.792Z,0
2017-08-18T00:35:53.794Z,0
2017-08-18T00:36:54.098Z,0
2017-08-18T00:37:54.087Z,0
2017-08-18T00:38:53.792Z,0
2017-08-18T00:39:53.761Z,0
2017-08-18T00:40:54.100Z,0
2017-08-18T00:41:53.753Z,0
2017-08-18T00:42:53.740Z,0
2017-08-18T00:43:54.050Z,0
2017-08-18T00:44:53.429Z,0
2017-08-18T00:45:53.421Z,0
2017-08-18T00:46:54.029Z,0
2017-08-18T00:47:54.014Z,0
2017-08-18T00:48:54.020Z,0
2017-08-18T00:49:54.009Z,0
2017-08-18T00:50:53.996Z,0
2017-08-18T00:51:53.689Z,0
2017-08-18T00:52:53.693Z,0
2017-08-18T00:53:53.966Z,0
2017-08-18T00:54:53.969Z,0
2017-08-18T00:55:53.959Z,0
2017-08-18T00:56:53.945Z,0
2017-08-18T00:57:53.955Z,0
2017-08-18T00:58:53.944Z,0
2017-08-18T00:59:53.629Z,0
2017-08-18T01:00:53.922Z,0
2017-08-18T01:01:53.899Z,0
2017-08-18T01:02:53.909Z,0
2017-08-18T01:03:53.927Z,0
2017-08-18T01:04:53.883Z,0
2017-08-18T01:05:53.868Z,0
2017-08-18T01:06:53.872Z,0
2017-08-18T01:07:53.567Z,0
2017-08-18T01:08:53.862Z,0
2017-08-18T01:09:53.850Z,0
2017-08-18T01:10:53.247Z,0
2017-08-18T01:11:53.849Z,0
2017-08-18T01:12:53.836Z,0
2017-08-18T01:13:53.830Z,0
2017-08-18T01:14:53.824Z,0
2017-08-18T01:15:53.813Z,0
2017-08-18T01:16:53.186Z,0
2017-08-18T01:17:53.808Z,0
2017-08-18T01:18:53.797Z,0
2017-08-18T01:19:53.796Z,0
2017-08-18T01:20:53.165Z,0
2017-08-18T01:21:53.770Z,0
2017-08-18T01:22:53.766Z,0
2017-08-18T01:23:53.151Z,0
2017-08-18T01:24:53.751Z,0
2017-08-18T01:25:53.438Z,0
2017-08-18T01:26:53.735Z,0
2017-08-18T01:27:53.115Z,0
2017-08-18T01:28:53.708Z,0
2017-08-18T01:29:53.406Z,0
2017-08-18T01:30:53.088Z,0
2017-08-18T01:31:53.694Z,0
2017-08-18T01:32:53.673Z,0
2017-08-18T01:33:53.682Z,0
2017-08-18T01:34:53.375Z,0
2017-08-18T01:35:53.356Z,0
2017-08-18T01:36:53.648Z,0
2017-08-18T01:37:53.029Z,0
2017-08-18T01:38:53.333Z,0
2017-08-18T01:39:53.334Z,0
2017-08-18T01:40:53.331Z,0
2017-08-18T01:41:53.630Z,0
2017-08-18T01:42:53.029Z,0
2017-08-18T01:43:53.594Z,0
2017-08-18T01:44:53.594Z,0
2017-08-18T01:45:53.584Z,0
2017-08-18T01:46:53.575Z,0
2017-08-18T01:47:53.563Z,0
2017-08-18T01:48:53.259Z,0
2017-08-18T01:49:53.572Z,0
2017-08-18T01:50:53.242Z,0
2017-08-18T01:51:53.552Z,0
2017-08-18T01:52:53.230Z,0
2017-08-18T01:53:53.215Z,0
2017-08-18T01:54:53.220Z,0
2017-08-18T01:55:53.208Z,0
2017-08-18T01:56:53.514Z,0
2017-08-18T01:57:53.503Z,0
2017-08-18T01:58:53.500Z,0
2017-08-18T01:59:53.181Z,0
2017-08-18T02:00:53.483Z,0
2017-08-18T02:01:53.474Z,0
2017-08-18T02:02:53.470Z,0
2017-08-18T02:03:52.861Z,0
2017-08-18T02:04:52.834Z,0
2017-08-18T02:05:53.440Z,0
2017-08-18T02:06:53.443Z,0
2017-08-18T02:07:53.430Z,0
2017-08-18T02:08:53.112Z,0
2017-08-18T02:09:53.403Z,0
2017-08-18T02:10:53.394Z,0
2017-08-18T02:11:53.395Z,0
2017-08-18T02:12:53.088Z,0
2017-08-18T02:13:53.365Z,0
2017-08-18T02:14:53.364Z,0
2017-08-18T02:15:53.368Z,0
2017-08-18T02:16:53.344Z,0
2017-08-18T02:17:53.355Z,0
2017-08-18T02:18:53.328Z,0
2017-08-18T02:19:53.022Z,0
2017-08-18T02:20:53.328Z,0
2017-08-18T02:21:53.009Z,0
2017-08-18T02:22:53.293Z,0
2017-08-18T02:23:52.985Z,0
2017-08-18T02:24:53.288Z,0
2017-08-18T02:25:53.283Z,0
2017-08-18T02:26:53.269Z,0
2017-08-18T02:27:53.267Z,0
2017-08-18T02:28:52.949Z,0
2017-08-18T02:29:52.941Z,0
2017-08-18T02:30:53.233Z,0
2017-08-18T02:31:52.930Z,0
2017-08-18T02:32:52.934Z,0
2017-08-18T02:33:53.214Z,0
2017-08-18T02:34:53.233Z,0
2017-08-18T02:35:53.194Z,0
2017-08-18T02:36:52.897Z,0
2017-08-18T02:37:52.869Z,0
2017-08-18T02:38:53.171Z,0
2017-08-18T02:39:53.169Z,0
2017-08-18T02:40:53.185Z,0
2017-08-18T02:41:53.159Z,0
2017-08-18T02:42:53.152Z,0
2017-08-18T02:43:53.121Z,0
2017-08-18T02:44:53.126Z,0
2017-08-18T02:45:52.842Z,0
2017-08-18T02:46:52.799Z,0
2017-08-18T02:47:53.103Z,0
2017-08-18T02:48:53.099Z,0
2017-08-18T02:49:53.081Z,0
2017-08-18T02:50:53.076Z,0
2017-08-18T02:51:52.762Z,0
2017-08-18T02:52:53.050Z,0
2017-08-18T02:53:52.771Z,0
2017-08-18T02:54:53.045Z,0
2017-08-18T02:55:53.045Z,0
2017-08-18T02:56:53.037Z,0
2017-08-18T02:57:53.035Z,0
2017-08-18T02:58:53.016Z,0
2017-08-18T02:59:53.008Z,0
2017-08-18T03:00:52.692Z,0
2017-08-18T03:01:52.986Z,0
2017-08-18T03:02:52.989Z,0
2017-08-18T03:03:52.971Z,0
2017-08-18T03:04:52.962Z,0
2017-08-18T03:05:52.956Z,0
2017-08-18T03:06:52.943Z,0
2017-08-18T03:07:52.948Z,0
2017-08-18T03:08:52.940Z,0
2017-08-18T03:09:52.922Z,0
2017-08-18T03:10:52.936Z,0
2017-08-18T03:11:52.902Z,0
2017-08-18T03:12:52.919Z,0
2017-08-18T03:13:52.899Z,0
2017-08-18T03:14:52.884Z,0
2017-08-18T03:15:52.887Z,0
2017-08-18T03:16:52.882Z,0
2017-08-18T03:17:52.867Z,0
2017-08-18T03:18:52.567Z,0
2017-08-18T03:19:52.860Z,0
2017-08-18T03:20:52.837Z,0
2017-08-18T03:21:52.839Z,0
2017-08-18T03:22:52.526Z,0
2017-08-18T03:23:52.824Z,0
2017-08-18T03:24:52.836Z,0
2017-08-18T03:25:52.799Z,0
2017-08-18T03:26:52.184Z,0
2017-08-18T03:27:52.489Z,0
2017-08-18T03:28:52.479Z,0
2017-08-18T03:29:52.778Z,0
2017-08-18T03:30:52.787Z,0
2017-08-18T03:31:52.452Z,0
2017-08-18T03:32:52.742Z,0
2017-08-18T03:33:52.742Z,0
2017-08-18T03:34:52.435Z,0
2017-08-18T03:35:52.725Z,0
2017-08-18T03:36:52.713Z,0
2017-08-18T03:37:52.401Z,0
2017-08-18T03:38:52.714Z,0
2017-08-18T03:39:52.684Z,0
2017-08-18T03:40:52.702Z,0
2017-08-18T03:41:52.682Z,0
2017-08-18T03:42:52.691Z,0
2017-08-18T03:43:52.658Z,0
2017-08-18T03:44:52.651Z,0
2017-08-18T03:45:52.642Z,0
2017-08-18T03:46:52.645Z,0
2017-08-18T03:47:52.309Z,0
2017-08-18T03:48:52.314Z,0
2017-08-18T03:49:52.307Z,0
2017-08-18T03:50:52.302Z,0
2017-08-18T03:51:52.594Z,0
2017-08-18T03:52:51.982Z,0
2017-08-18T03:53:52.256Z,0
2017-08-18T03:54:52.560Z,0
2017-08-18T03:55:52.554Z,0
2017-08-18T03:56:52.442Z,0
2017-08-18T03:57:52.533Z,0
2017-08-18T03:58:52.530Z,0
2017-08-18T03:59:52.220Z,0
2017-08-18T04:00:52.205Z,0
2017-08-18T04:01:52.431Z,5
2017-08-18T04:02:51.884Z,5
2017-08-18T04:03:52.172Z,5
2017-08-18T04:04:52.169Z,5
2017-08-18T04:05:51.866Z,5
2017-08-18T04:06:52.455Z,5
2017-08-18T04:07:52.168Z,5
2017-08-18T04:08:52.440Z,5
2017-08-18T04:09:52.441Z,10
2017-08-18T04:10:52.433Z,10
2017-08-18T04:11:52.425Z,10
2017-08-18T04:12:52.418Z,15
2017-08-18T04:13:52.417Z,15
2017-08-18T04:14:52.413Z,20
2017-08-18T04:15:52.418Z,20
2017-08-18T04:16:52.368Z,25
2017-08-18T04:17:52.372Z,25
2017-08-18T04:18:51.741Z,30
2017-08-18T04:19:52.072Z,35
2017-08-18T04:20:52.357Z,35
2017-08-18T04:21:52.347Z,40
2017-08-18T04:22:52.028Z,40
2017-08-18T04:23:52.317Z,45
2017-08-18T04:24:52.319Z,50
2017-08-18T04:25:52.301Z,55
2017-08-18T04:26:51.980Z,55
2017-08-18T04:27:51.991Z,65
2017-08-18T04:28:51.968Z,65
2017-08-18T04:29:52.271Z,75
2017-08-18T04:30:51.960Z,90
2017-08-18T04:31:51.950Z,90
2017-08-18T04:32:52.253Z,90
2017-08-18T04:34:05.889Z,90
2017-08-18T04:34:52.147Z,90
2017-08-18T04:35:51.908Z,95
2017-08-18T04:36:51.901Z,105
2017-08-18T04:37:52.205Z,110
2017-08-18T04:38:52.410Z,115
2017-08-18T04:39:52.185Z,120
2017-08-18T04:40:51.883Z,125
2017-08-18T04:41:52.185Z,120
2017-08-18T04:42:52.163Z,115
2017-08-18T04:43:52.156Z,115
2017-08-18T04:44:52.158Z,120
2017-08-18T04:45:52.135Z,130
2017-08-18T04:46:52.134Z,150
2017-08-18T04:47:52.126Z,185
2017-08-18T04:48:52.118Z,200
2017-08-18T04:49:51.814Z,210
2017-08-18T04:50:52.093Z,220
2017-08-18T04:51:52.099Z,210
2017-08-18T04:52:52.092Z,225
2017-08-18T04:53:52.071Z,245
2017-08-18T04:54:52.066Z,275
2017-08-18T04:55:52.049Z,285
2017-08-18T04:56:52.051Z,285
2017-08-18T04:57:52.038Z,285
2017-08-18T04:58:52.044Z,255
2017-08-18T04:59:52.026Z,275
2017-08-18T05:00:52.022Z,310
2017-08-18T05:01:52.021Z,315
2017-08-18T05:02:52.007Z,335
2017-08-18T05:03:51.989Z,335
2017-08-18T05:04:51.985Z,335
2017-08-18T05:05:52.191Z,340
2017-08-18T05:06:51.962Z,355
2017-08-18T05:07:51.972Z,365
2017-08-18T05:08:51.957Z,390
2017-08-18T05:09:51.939Z,395
2017-08-18T05:10:51.938Z,410
2017-08-18T05:11:52.127Z,435
2017-08-18T05:12:51.914Z,440
2017-08-18T05:13:51.900Z,445
2017-08-18T05:14:51.885Z,450
2017-08-18T05:15:52.097Z,460
2017-08-18T05:16:52.099Z,495
2017-08-18T05:17:51.902Z,485
2017-08-18T05:18:51.861Z,485
2017-08-18T05:19:52.065Z,490
2017-08-18T05:20:51.865Z,490
2017-08-18T05:21:51.849Z,500
2017-08-18T05:22:51.848Z,510
2017-08-18T05:23:51.832Z,530
2017-08-18T05:24:51.848Z,565
2017-08-18T05:25:51.851Z,600
2017-08-18T05:26:51.505Z,590
2017-08-18T05:27:51.792Z,490
2017-08-18T05:28:51.801Z,500
2017-08-18T05:29:51.812Z,565
2017-08-18T05:30:51.774Z,625
2017-08-18T05:31:51.471Z,630
2017-08-18T05:32:51.757Z,655
2017-08-18T05:33:51.751Z,690
2017-08-18T05:34:51.448Z,615
2017-08-18T05:35:51.435Z,600
2017-08-18T05:36:51.738Z,685
2017-08-18T05:37:51.135Z,690
2017-08-18T05:38:51.409Z,695
2017-08-18T05:39:51.121Z,710
2017-08-18T05:40:51.711Z,685
2017-08-18T05:41:51.697Z,670
2017-08-18T05:42:51.381Z,705
2017-08-18T05:44:05.009Z,735
2017-08-18T05:44:51.683Z,770
2017-08-18T05:45:51.365Z,765
2017-08-18T05:46:51.652Z,830
2017-08-18T05:47:51.655Z,850
2017-08-18T05:48:51.858Z,870
2017-08-18T05:49:51.844Z,890
2017-08-18T05:50:51.630Z,925
2017-08-18T05:51:51.623Z,965
2017-08-18T05:52:51.611Z,1010
2017-08-18T05:53:51.810Z,1005
2017-08-18T05:54:51.297Z,1025
2017-08-18T05:55:51.602Z,1035
2017-08-18T05:56:51.327Z,1010
2017-08-18T05:57:51.293Z,1040
2017-08-18T05:58:51.574Z,1060
2017-08-18T05:59:51.258Z,1070
2017-08-18T06:00:51.561Z,1275
2017-08-18T06:01:51.577Z,1210
2017-08-18T06:02:51.563Z,1050
2017-08-18T06:03:51.546Z,860
2017-08-18T06:04:51.228Z,745
2017-08-18T06:05:51.257Z,725
2017-08-18T06:06:51.220Z,720
2017-08-18T06:07:51.530Z,715
2017-08-18T06:08:51.516Z,700
2017-08-18T06:09:51.503Z,690
2017-08-18T06:10:51.491Z,685
2017-08-18T06:11:51.500Z,690
2017-08-18T06:12:51.498Z,710
2017-08-18T06:13:51.486Z,725
2017-08-18T06:14:51.480Z,735
2017-08-18T06:15:51.465Z,760
2017-08-18T06:16:51.466Z,840
2017-08-18T06:17:51.459Z,805
2017-08-18T06:18:51.456Z,720
2017-08-18T06:19:51.151Z,695
2017-08-18T06:20:51.436Z,680
2017-08-18T06:21:51.645Z,695
2017-08-18T06:22:51.441Z,720
2017-08-18T06:23:51.428Z,800
2017-08-18T06:24:51.411Z,1080
2017-08-18T06:25:51.417Z,1275
2017-08-18T06:26:51.407Z,1115
2017-08-18T06:27:51.303Z,1310
2017-08-18T06:28:51.381Z,1275
2017-08-18T06:29:51.383Z,1475
2017-08-18T06:30:51.378Z,1575
2017-08-18T06:31:51.374Z,1695
2017-08-18T06:32:51.585Z,1610
2017-08-18T06:33:51.357Z,1605
2017-08-18T06:34:51.071Z,1545
2017-08-18T06:35:51.369Z,1505
2017-08-18T06:36:51.058Z,1615
2017-08-18T06:37:51.242Z,1680
2017-08-18T06:38:51.041Z,1570
2017-08-18T06:39:51.338Z,1425
2017-08-18T06:40:51.323Z,1430
2017-08-18T06:41:51.017Z,1420
2017-08-18T06:42:51.331Z,1560
2017-08-18T06:43:51.030Z,1415
2017-08-18T06:44:51.009Z,1545
2017-08-18T06:45:51.003Z,1350
2017-08-18T06:46:51.296Z,1125
2017-08-18T06:47:50.990Z,1025
2017-08-18T06:48:50.980Z,995
2017-08-18T06:49:51.295Z,915
2017-08-18T06:50:51.288Z,900
2017-08-18T06:51:50.964Z,1045
2017-08-18T06:52:51.275Z,2110
2017-08-18T06:53:50.945Z,2205
2017-08-18T06:54:50.954Z,1405
2017-08-18T06:55:50.940Z,1390
2017-08-18T06:56:50.943Z,1545
2017-08-18T06:57:51.236Z,1135
2017-08-18T06:58:51.219Z,725
2017-08-18T06:59:51.222Z,715
2017-08-18T07:00:51.439Z,1780
2017-08-18T07:01:51.226Z,1915
2017-08-18T07:02:51.221Z,1170
2017-08-18T07:03:51.185Z,2280
2017-08-18T07:04:51.191Z,2120
2017-08-18T07:05:51.407Z,2075
2017-08-18T07:06:51.184Z,2055
2017-08-18T07:07:51.185Z,2075
2017-08-18T07:08:50.859Z,2280
2017-08-18T07:09:51.172Z,1820
2017-08-18T07:10:50.840Z,1315
2017-08-18T07:11:50.854Z,1295
2017-08-18T07:12:51.131Z,1510
2017-08-18T07:13:51.135Z,1375
2017-08-18T07:14:51.144Z,1325
2017-08-18T07:15:51.325Z,1300
2017-08-18T07:16:51.122Z,1395
2017-08-18T07:17:51.119Z,1595
2017-08-18T07:18:51.106Z,1455
2017-08-18T07:19:51.113Z,1580
2017-08-18T07:20:51.091Z,1435
2017-08-18T07:21:51.082Z,1250
2017-08-18T07:22:51.089Z,1155
2017-08-18T07:23:51.074Z,1090
2017-08-18T07:24:50.770Z,1020
2017-08-18T07:25:51.064Z,970
2017-08-18T07:26:51.070Z,935
2017-08-18T07:27:50.748Z,1040
2017-08-18T07:28:51.036Z,940
2017-08-18T07:29:50.736Z,920
2017-08-18T07:30:51.038Z,1150
2017-08-18T07:31:51.036Z,1250
2017-08-18T07:32:51.026Z,1365
2017-08-18T07:33:51.013Z,1655
2017-08-18T07:34:51.009Z,2175
2017-08-18T07:35:51.008Z,2110
2017-08-18T07:36:50.993Z,2225
2017-08-18T07:37:50.978Z,2455
2017-08-18T07:38:51.175Z,2235
2017-08-18T07:39:50.982Z,2150
2017-08-18T07:40:50.963Z,1455
2017-08-18T07:41:50.666Z,2050
2017-08-18T07:43:05.570Z,1565
2017-08-18T07:43:50.955Z,2005
2017-08-18T07:44:50.645Z,2320
2017-08-18T07:45:50.927Z,2000
2017-08-18T07:46:50.651Z,1350
2017-08-18T07:47:50.635Z,1755
2017-08-18T07:48:50.919Z,1700
2017-08-18T07:49:50.911Z,1905
2017-08-18T07:50:50.607Z,2775
2017-08-18T07:51:50.915Z,2565
2017-08-18T07:52:50.901Z,2455
2017-08-18T07:53:50.582Z,2580
2017-08-18T07:54:50.583Z,3185
2017-08-18T07:55:50.866Z,3460
2017-08-18T07:56:50.273Z,2870
2017-08-18T07:57:50.559Z,2705
2017-08-18T07:58:50.849Z,2980
2017-08-18T07:59:50.553Z,3055
2017-08-18T08:00:50.546Z,3010
2017-08-18T08:01:50.225Z,3215
2017-08-18T08:02:50.228Z,3505
2017-08-18T08:03:50.218Z,3350
2017-08-18T08:04:50.507Z,3000
2017-08-18T08:05:50.504Z,3005
2017-08-18T08:06:50.816Z,3405
2017-08-18T08:07:50.503Z,3065
2017-08-18T08:08:50.508Z,2465
2017-08-18T08:09:50.785Z,2605
2017-08-18T08:10:50.492Z,2610
2017-08-18T08:11:50.792Z,2585
2017-08-18T08:12:50.460Z,2920
2017-08-18T08:13:50.455Z,3025
2017-08-18T08:14:50.765Z,2685
2017-08-18T08:15:50.450Z,2420
2017-08-18T08:16:50.445Z,2545
2017-08-18T08:17:50.745Z,2345
2017-08-18T08:18:50.137Z,2325
2017-08-18T08:19:50.423Z,2910
2017-08-18T08:20:50.120Z,3260
2017-08-18T08:21:50.424Z,2445
2017-08-18T08:22:50.418Z,2350
2017-08-18T08:23:50.415Z,2535
2017-08-18T08:24:50.404Z,2630
2017-08-18T08:25:50.407Z,2845
2017-08-18T08:26:50.397Z,2675
2017-08-18T08:27:50.084Z,2775
2017-08-18T08:28:50.387Z,2825
2017-08-18T08:29:50.387Z,2785
2017-08-18T08:30:50.389Z,2875
2017-08-18T08:31:50.683Z,2980
2017-08-18T08:32:50.371Z,3020
2017-08-18T08:33:50.094Z,3005
2017-08-18T08:34:50.367Z,3050
2017-08-18T08:35:50.041Z,3055
2017-08-18T08:36:50.659Z,3005
2017-08-18T08:37:50.646Z,2930
2017-08-18T08:38:50.662Z,2735
2017-08-18T08:39:50.340Z,2985
2017-08-18T08:40:50.342Z,2995
2017-08-18T08:41:50.040Z,2925
2017-08-18T08:42:50.628Z,2930
2017-08-18T08:43:50.331Z,2975
2017-08-18T08:44:50.620Z,3270
2017-08-18T08:45:50.017Z,3450
2017-08-18T08:46:50.301Z,3340
2017-08-18T08:47:50.615Z,3105
2017-08-18T08:48:50.614Z,3025
2017-08-18T08:49:50.587Z,3310
2017-08-18T08:50:50.602Z,3005
2017-08-18T08:51:50.573Z,2975
2017-08-18T08:52:50.586Z,2780
2017-08-18T08:53:50.581Z,3060
2017-08-18T08:54:50.580Z,3225
2017-08-18T08:55:50.568Z,2985
2017-08-18T08:56:50.579Z,3595
2017-08-18T08:57:50.565Z,4335
2017-08-18T08:58:50.574Z,4745
2017-08-18T08:59:50.257Z,3975
2017-08-18T09:00:50.542Z,3955
2017-08-18T09:01:50.553Z,4180
2017-08-18T09:02:50.545Z,3830
2017-08-18T09:03:50.559Z,3270
2017-08-18T09:04:50.250Z,3230
2017-08-18T09:05:50.518Z,2975
2017-08-18T09:06:50.221Z,3315
2017-08-18T09:07:50.530Z,2715
2017-08-18T09:08:50.517Z,2770
2017-08-18T09:09:50.521Z,2785
2017-08-18T09:10:50.224Z,2215
2017-08-18T09:11:50.509Z,2570
2017-08-18T09:12:50.505Z,3135
2017-08-18T09:13:50.498Z,3310
2017-08-18T09:14:50.478Z,965
2017-08-18T09:15:50.490Z,965
2017-08-18T09:16:50.460Z,3075
2017-08-18T09:17:50.472Z,3315
2017-08-18T09:18:50.490Z,3570
2017-08-18T09:19:50.468Z,3125
2017-08-18T09:20:50.458Z,3820
2017-08-18T09:21:50.455Z,3635
2017-08-18T09:22:50.442Z,2655
2017-08-18T09:23:50.423Z,2725
2017-08-18T09:24:50.451Z,3405
2017-08-18T09:25:50.432Z,3965
2017-08-18T09:26:50.138Z,4160
2017-08-18T09:27:50.109Z,4310
2017-08-18T09:28:50.410Z,3295
2017-08-18T09:29:50.408Z,2305
2017-08-18T09:30:50.426Z,2505
2017-08-18T09:31:50.097Z,3810
2017-08-18T09:32:50.083Z,4230
2017-08-18T09:33:50.091Z,3985
2017-08-18T09:34:50.070Z,3675
2017-08-18T09:35:49.764Z,3675
2017-08-18T09:36:49.754Z,3730
2017-08-18T09:37:50.365Z,1030
2017-08-18T09:38:50.060Z,3830
2017-08-18T09:39:50.372Z,3790
2017-08-18T09:40:49.751Z,4100
2017-08-18T09:41:49.741Z,3925
2017-08-18T09:42:50.353Z,2855
2017-08-18T09:43:49.732Z,2875
2017-08-18T09:44:50.343Z,3635
2017-08-18T09:45:50.042Z,3500
2017-08-18T09:46:50.325Z,3525
2017-08-18T09:47:50.310Z,3480
2017-08-18T09:48:49.704Z,3320
2017-08-18T09:49:50.010Z,3110
2017-08-18T09:50:50.006Z,2645
2017-08-18T09:51:49.696Z,3920
2017-08-18T09:52:50.009Z,4435
2017-08-18T09:53:50.297Z,4450
2017-08-18T09:54:50.002Z,4005
2017-08-18T09:55:50.322Z,3705
2017-08-18T09:56:49.985Z,3870
2017-08-18T09:57:49.989Z,3995
2017-08-18T09:58:49.985Z,3750
2017-08-18T09:59:50.288Z,4630
2017-08-18T10:00:50.275Z,4420
2017-08-18T10:01:50.278Z,4475
2017-08-18T10:02:50.270Z,2340
2017-08-18T10:03:50.265Z,2590
2017-08-18T10:04:49.952Z,4090
2017-08-18T10:05:50.251Z,3525
2017-08-18T10:06:49.953Z,4080
2017-08-18T10:07:49.946Z,4550
2017-08-18T10:08:49.933Z,4070
2017-08-18T10:09:49.957Z,2395
2017-08-18T10:10:50.245Z,3705
2017-08-18T10:11:49.928Z,2525
2017-08-18T10:12:49.937Z,3650
2017-08-18T10:13:49.924Z,2850
2017-08-18T10:14:49.930Z,4100
2017-08-18T10:15:49.928Z,4145
2017-08-18T10:16:49.923Z,5200
2017-08-18T10:17:49.915Z,3475
2017-08-18T10:18:49.919Z,4990
2017-08-18T10:19:49.920Z,5120
2017-08-18T10:20:49.895Z,4630
2017-08-18T10:21:49.907Z,3350
2017-08-18T10:22:50.199Z,2770
2017-08-18T10:23:49.901Z,3325
2017-08-18T10:24:50.222Z,4290
2017-08-18T10:25:50.183Z,3415
2017-08-18T10:26:50.202Z,5140
2017-08-18T10:27:50.180Z,4615
2017-08-18T10:28:50.192Z,4360
2017-08-18T10:29:49.875Z,3880
2017-08-18T10:30:50.178Z,4380
2017-08-18T10:31:50.164Z,4590
2017-08-18T10:32:50.170Z,4635
2017-08-18T10:33:49.567Z,4465
2017-08-18T10:34:49.853Z,4140
2017-08-18T10:35:49.838Z,4145
2017-08-18T10:36:49.855Z,4545
2017-08-18T10:37:49.836Z,4475
2017-08-18T10:38:50.166Z,4395
2017-08-18T10:39:49.828Z,4875
2017-08-18T10:40:50.130Z,4860
2017-08-18T10:41:50.136Z,4255
2017-08-18T10:42:49.825Z,3855
2017-08-18T10:43:50.117Z,4450
2017-08-18T10:44:49.810Z,4900
2017-08-18T10:45:49.507Z,4170
2017-08-18T10:46:49.506Z,3895
2017-08-18T10:47:49.818Z,3905
2017-08-18T10:48:50.104Z,4455
2017-08-18T10:49:50.111Z,4410
2017-08-18T10:50:49.806Z,4000
2017-08-18T10:51:50.102Z,3875
2017-08-18T10:52:50.094Z,4245
2017-08-18T10:53:49.793Z,4350
2017-08-18T10:54:50.098Z,4040
2017-08-18T10:55:49.785Z,3655
2017-08-18T10:56:49.786Z,3680
2017-08-18T10:57:49.777Z,4055
2017-08-18T10:58:50.075Z,4410
2017-08-18T10:59:49.461Z,4700
2017-08-18T11:00:49.763Z,4480
2017-08-18T11:01:49.760Z,4110
2017-08-18T11:02:49.761Z,4105
2017-08-18T11:03:49.746Z,3915
2017-08-18T11:04:49.753Z,3835
2017-08-18T11:05:49.735Z,3930
2017-08-18T11:06:49.748Z,3820
2017-08-18T11:07:49.735Z,3740
2017-08-18T11:08:50.045Z,3680
2017-08-18T11:09:49.737Z,3900
2017-08-18T11:10:50.029Z,4180
2017-08-18T11:11:49.730Z,4180
2017-08-18T11:12:49.729Z,4440
2017-08-18T11:13:50.030Z,4550
2017-08-18T11:14:50.013Z,4705
2017-08-18T11:15:50.015Z,4620
2017-08-18T11:16:50.018Z,4390
2017-08-18T11:17:50.020Z,4985
2017-08-18T11:18:50.021Z,5295
2017-08-18T11:19:50.000Z,4575
2017-08-18T11:20:50.005Z,4390
2017-08-18T11:21:49.999Z,3800
2017-08-18T11:22:50.011Z,3865
2017-08-18T11:23:49.688Z,4280
2017-08-18T11:24:49.991Z,2380
2017-08-18T11:25:50.007Z,5640
2017-08-18T11:26:49.990Z,5800
2017-08-18T11:27:49.980Z,5830
2017-08-18T11:28:49.980Z,5525
2017-08-18T11:29:49.969Z,5660
2017-08-18T11:30:49.963Z,5750
2017-08-18T11:31:49.985Z,5210
2017-08-18T11:32:49.964Z,4585
2017-08-18T11:33:49.966Z,4830
2017-08-18T11:34:49.662Z,4605
2017-08-18T11:35:49.966Z,3565
2017-08-18T11:36:49.952Z,2660
2017-08-18T11:37:49.055Z,3205
2017-08-18T11:38:49.948Z,3970
2017-08-18T11:39:49.671Z,4050
2017-08-18T11:40:49.945Z,4425
2017-08-18T11:41:49.652Z,5465
2017-08-18T11:42:49.931Z,4955
2017-08-18T11:43:49.966Z,3805
2017-08-18T11:44:49.935Z,3775
2017-08-18T11:45:49.923Z,3725
2017-08-18T11:46:49.612Z,3370
2017-08-18T11:47:49.906Z,3520
2017-08-18T11:48:49.913Z,3755
2017-08-18T11:49:49.610Z,3555
2017-08-18T11:50:49.921Z,3950
2017-08-18T11:51:49.908Z,3520
2017-08-18T11:52:49.902Z,3650
2017-08-18T11:53:49.892Z,5060
2017-08-18T11:54:49.605Z,5825
2017-08-18T11:55:49.902Z,6000
2017-08-18T11:56:49.590Z,1045
2017-08-18T11:57:49.898Z,1220
2017-08-18T11:58:49.892Z,2520
2017-08-18T11:59:49.888Z,3200
2017-08-18T12:00:49.570Z,2760
2017-08-18T12:01:49.885Z,3270
2017-08-18T12:02:49.882Z,5510
2017-08-18T12:03:49.565Z,6565
2017-08-18T12:04:49.892Z,4965
2017-08-18T12:05:49.887Z,4445
2017-08-18T12:06:49.553Z,5520
2017-08-18T12:07:49.895Z,4915
2017-08-18T12:08:49.867Z,4390
2017-08-18T12:09:49.858Z,4455
2017-08-18T12:10:49.561Z,4910
2017-08-18T12:11:49.856Z,5080
2017-08-18T12:12:49.562Z,4805
2017-08-18T12:13:49.853Z,4620
2017-08-18T12:14:49.855Z,5455
2017-08-18T12:15:49.857Z,5920
2017-08-18T12:16:49.545Z,5365
2017-08-18T12:17:49.546Z,6060
2017-08-18T12:18:49.840Z,5935
2017-08-18T12:19:49.838Z,4355
2017-08-18T12:20:49.835Z,3795
2017-08-18T12:21:49.830Z,3875
2017-08-18T12:22:49.532Z,3670
2017-08-18T12:23:49.529Z,3555
2017-08-18T12:24:49.822Z,3765
2017-08-18T12:25:49.847Z,3455
2017-08-18T12:26:49.837Z,3515
2017-08-18T12:27:49.813Z,4005
2017-08-18T12:28:49.826Z,3880
2017-08-18T12:29:49.810Z,3350
2017-08-18T12:30:49.799Z,3365
2017-08-18T12:31:49.820Z,3805
2017-08-18T12:32:49.811Z,4035
2017-08-18T12:33:49.811Z,4440
2017-08-18T12:34:49.785Z,3745
2017-08-18T12:35:49.810Z,3210
2017-08-18T12:36:49.809Z,3465
2017-08-18T12:37:49.178Z,4410
2017-08-18T12:38:49.498Z,5395
2017-08-18T12:39:49.784Z,4390
2017-08-18T12:40:49.777Z,3655
2017-08-18T12:41:49.477Z,4085
2017-08-18T12:42:49.478Z,6155
2017-08-18T12:43:49.482Z,9090
2017-08-18T12:44:49.799Z,7170
2017-08-18T12:45:49.792Z,4605
2017-08-18T12:46:49.773Z,3470
2017-08-18T12:47:50.032Z,1275
2017-08-18T12:48:49.768Z,1845
2017-08-18T12:49:49.761Z,1615
2017-08-18T12:50:49.764Z,1605
2017-08-18T12:51:49.160Z,1615
2017-08-18T12:52:49.758Z,1580
2017-08-18T12:53:49.773Z,1720
2017-08-18T12:54:49.443Z,2580
2017-08-18T12:55:49.451Z,3885
2017-08-18T12:56:49.459Z,5435
2017-08-18T12:57:49.763Z,7105
2017-08-18T12:58:49.449Z,6265
2017-08-18T12:59:49.437Z,4225
2017-08-18T13:00:49.422Z,3960
2017-08-18T13:01:49.739Z,4215
2017-08-18T13:02:49.587Z,3860
2017-08-18T13:03:49.734Z,3635
2017-08-18T13:04:49.734Z,3780
2017-08-18T13:05:49.423Z,3725
2017-08-18T13:06:49.720Z,3815
2017-08-18T13:07:49.419Z,4055
2017-08-18T13:08:49.400Z,4055
2017-08-18T13:09:49.707Z,4210
2017-08-18T13:10:49.404Z,4575
2017-08-18T13:11:49.101Z,4485
2017-08-18T13:12:49.397Z,4415
2017-08-18T13:13:49.097Z,4470
2017-08-18T13:14:49.409Z,4590
2017-08-18T13:15:49.392Z,2060
2017-08-18T13:16:49.674Z,2985
2017-08-18T13:17:49.688Z,4285
2017-08-18T13:18:49.380Z,3915
2017-08-18T13:19:49.698Z,3970
2017-08-18T13:20:49.375Z,4350
2017-08-18T13:21:49.350Z,4360
2017-08-18T13:22:49.371Z,1345
2017-08-18T13:23:49.368Z,3920
2017-08-18T13:24:49.063Z,3560
2017-08-18T13:25:49.345Z,3780
2017-08-18T13:26:49.677Z,1330
2017-08-18T13:27:49.345Z,2750
2017-08-18T13:28:49.023Z,3285
2017-08-18T13:29:49.644Z,3535
2017-08-18T13:30:49.645Z,4185
2017-08-18T13:31:49.641Z,4420
2017-08-18T13:32:49.641Z,4270
2017-08-18T13:33:49.338Z,4255
2017-08-18T13:34:49.313Z,4420
2017-08-18T13:35:49.625Z,4165
2017-08-18T13:36:49.633Z,1210
2017-08-18T13:37:49.625Z,1250
2017-08-18T13:38:49.611Z,1305
2017-08-18T13:39:49.645Z,1190
2017-08-18T13:40:49.003Z,1365
2017-08-18T13:41:48.995Z,1005
2017-08-18T13:42:49.017Z,965
2017-08-18T13:43:49.609Z,1000
2017-08-18T13:44:48.982Z,1045
2017-08-18T13:45:49.599Z,1140
2017-08-18T13:46:49.619Z,1285
2017-08-18T13:47:49.589Z,1720
2017-08-18T13:48:49.008Z,1340